Time;durP1;ratioP1;P1;durP2;ratioP2;P2;SDS_P1;SDS_P2;PMS_P1;PMS_P2;Temp;Humidity;BMP_temperature;BMP_pressure;BME280_temperature;BME280_humidity;BME280_pressure;Samples;Min_cycle;Max_cycle;Signal;HPM_P1;HPM_P2
2023/10/18 00:02:00;;;;;;;1.02;0.80;;;19.70;53.90;;;;;;4931390;27;44885;-56
2023/10/18 00:05:00;;;;;;;1.27;0.90;;;19.60;53.80;;;;;;4925395;27;45440;-56
2023/10/18 00:07:36;;;;;;;1.02;0.85;;;19.60;53.60;;;;;;4914036;27;45436;-56
2023/10/18 00:10:08;;;;;;;1.70;0.82;;;19.60;53.90;;;;;;4913560;27;46227;-56
2023/10/18 00:12:53;;;;;;;1.33;0.82;;;19.60;53.90;;;;;;4938484;27;45208;-56
2023/10/18 00:15:31;;;;;;;1.95;0.98;;;19.60;53.60;;;;;;4915866;27;45216;-56
2023/10/18 00:18:21;;;;;;;1.58;0.98;;;19.60;53.90;;;;;;4926655;27;45347;-56
2023/10/18 00:21:07;;;;;;;1.60;0.88;;;19.60;53.30;;;;;;4912395;27;46831;-56
2023/10/18 00:23:35;;;;;;;3.28;1.02;;;19.60;53.00;;;;;;4908128;27;45229;-56
2023/10/18 00:26:30;;;;;;;2.08;1.23;;;19.60;53.00;;;;;;4936792;27;44881;-56
2023/10/18 00:28:57;;;;;;;2.10;0.73;;;19.60;52.70;;;;;;4926810;27;45665;-56
2023/10/18 00:31:27;;;;;;;1.63;1.00;;;19.60;52.50;;;;;;4915212;27;47268;-56
2023/10/18 00:34:11;;;;;;;2.00;1.02;;;19.60;52.80;;;;;;4915415;27;45155;-56
2023/10/18 00:36:37;;;;;;;2.75;1.02;;;19.60;52.90;;;;;;4900698;27;45553;-56
2023/10/18 00:39:18;;;;;;;2.20;0.93;;;19.60;52.70;;;;;;4912585;27;45620;-56
2023/10/18 00:41:54;;;;;;;1.60;0.88;;;19.60;52.30;;;;;;4908513;27;45517;-56
2023/10/18 00:44:55;;;;;;;1.27;0.85;;;19.60;52.20;;;;;;4925762;27;45628;-56
2023/10/18 00:52:35;;;;;;;1.33;0.70;;;19.70;52.10;;;;;;6090691;22;45591;-56
2023/10/18 00:55:05;;;;;;;1.77;0.73;;;19.60;51.80;;;;;;4884351;27;45256;-56
2023/10/18 00:57:41;;;;;;;1.60;0.80;;;19.60;51.80;;;;;;4879965;27;45039;-56
2023/10/18 01:00:40;;;;;;;1.60;1.00;;;19.60;51.80;;;;;;4870644;27;45223;-56
2023/10/18 01:03:31;;;;;;;1.10;0.85;;;19.60;51.40;;;;;;4870986;27;45799;-56
2023/10/18 01:09:06;;;;;;;1.02;0.80;;;19.60;51.20;;;;;;4862940;27;45278;-56
2023/10/18 01:11:45;;;;;;;1.33;0.90;;;19.60;51.40;;;;;;4859761;27;45219;-56
2023/10/18 01:14:36;;;;;;;1.00;0.70;;;19.60;51.00;;;;;;4878983;27;45380;-56
2023/10/18 01:17:27;;;;;;;1.60;0.85;;;19.60;50.80;;;;;;4877473;27;45521;-56
2023/10/18 01:19:54;;;;;;;1.42;0.82;;;19.60;50.70;;;;;;4850673;27;45454;-56
2023/10/18 01:22:33;;;;;;;1.70;0.90;;;19.60;51.00;;;;;;4876829;27;45421;-56
2023/10/18 01:25:09;;;;;;;1.17;0.90;;;19.60;50.70;;;;;;4879378;27;47312;-56
2023/10/18 01:28:45;;;;;;;0.93;0.80;;;19.60;50.80;;;;;;4875237;27;45090;-56
2023/10/18 01:31:44;;;;;;;1.48;0.80;;;19.60;50.60;;;;;;4904619;27;45080;-55
2023/10/18 01:34:19;;;;;;;4.30;1.20;;;19.60;50.40;;;;;;4881944;27;45142;-56
2023/10/18 01:37:21;;;;;;;1.15;0.80;;;19.60;50.50;;;;;;4879621;27;45628;-56
2023/10/18 01:39:52;;;;;;;1.35;0.90;;;19.60;50.30;;;;;;4860751;27;45500;-56
2023/10/18 01:42:30;;;;;;;1.88;0.90;;;19.60;50.40;;;;;;4875224;27;45306;-56
2023/10/18 01:44:58;;;;;;;1.48;0.95;;;19.60;50.40;;;;;;4891958;27;45445;-56
2023/10/18 01:47:52;;;;;;;1.95;0.93;;;19.60;50.40;;;;;;4911662;27;47469;-55
2023/10/18 01:50:47;;;;;;;1.50;0.80;;;19.60;50.30;;;;;;4909070;27;44899;-55
2023/10/18 01:53:18;;;;;;;1.25;0.80;;;19.60;50.40;;;;;;4873819;27;45024;-55
2023/10/18 01:55:51;;;;;;;2.38;0.70;;;19.60;50.40;;;;;;4894082;27;45430;-55
2023/10/18 01:58:26;;;;;;;1.05;0.50;;;19.50;51.50;;;;;;4889550;27;46225;-56
2023/10/18 02:01:27;;;;;;;1.10;0.60;;;19.50;50.30;;;;;;4882710;27;45224;-56
2023/10/18 02:07:07;;;;;;;0.85;0.75;;;19.50;50.20;;;;;;4825340;28;45306;-56
2023/10/18 02:09:44;;;;;;;0.77;0.70;;;19.50;50.10;;;;;;4867329;27;46867;-56
2023/10/18 02:12:50;;;;;;;1.65;0.60;;;19.50;50.00;;;;;;4901884;27;44917;-55
2023/10/18 02:15:18;;;;;;;0.82;0.80;;;19.50;50.20;;;;;;4859424;27;45331;-56
2023/10/18 02:18:14;;;;;;;1.00;0.60;;;19.50;50.40;;;;;;4893016;27;45345;-55
2023/10/18 02:20:58;;;;;;;1.17;0.65;;;19.50;50.30;;;;;;4867820;27;47455;-56
2023/10/18 02:23:48;;;;;;;0.98;0.65;;;19.50;50.60;;;;;;4883529;27;45270;-56
2023/10/18 02:26:53;;;;;;;2.28;0.77;;;19.50;50.40;;;;;;4857846;27;45320;-56
2023/10/18 02:29:31;;;;;;;1.55;0.82;;;19.50;50.50;;;;;;4883334;27;45407;-56
2023/10/18 02:32:22;;;;;;;1.00;0.73;;;19.50;50.40;;;;;;4904116;27;45476;-56
2023/10/18 02:34:50;;;;;;;1.33;0.80;;;19.60;50.50;;;;;;4882991;27;45143;-56
2023/10/18 02:37:16;;;;;;;0.77;0.70;;;19.50;50.60;;;;;;4864087;27;45208;-56
2023/10/18 02:40:07;;;;;;;1.48;0.75;;;19.50;50.30;;;;;;4876433;27;45312;-56
2023/10/18 02:42:43;;;;;;;1.52;0.88;;;19.50;50.40;;;;;;4860503;27;45307;-56
2023/10/18 02:45:31;;;;;;;0.80;0.60;;;19.60;50.70;;;;;;4898438;27;45114;-56
2023/10/18 02:48:08;;;;;;;1.95;0.82;;;19.60;50.30;;;;;;4861490;27;45471;-55
2023/10/18 02:53:18;;;;;;;0.40;0.40;;;19.50;50.30;;;;;;4853914;27;45716;-56
2023/10/18 02:55:59;;;;;;;0.88;0.60;;;19.60;50.40;;;;;;4840231;27;45469;-56
2023/10/18 02:59:06;;;;;;;1.30;0.73;;;19.60;50.40;;;;;;4864128;27;45273;-56
2023/10/18 03:01:48;;;;;;;0.95;0.70;;;19.60;50.20;;;;;;4870777;27;45176;-56
2023/10/18 03:04:34;;;;;;;0.63;0.45;;;19.60;50.00;;;;;;4910681;27;46536;-56
2023/10/18 03:07:14;;;;;;;0.68;0.50;;;19.60;49.70;;;;;;4851122;27;44876;-55
2023/10/18 03:10:19;;;;;;;0.93;0.52;;;19.60;49.70;;;;;;4879557;27;45399;-55
2023/10/18 03:12:58;;;;;;;0.75;0.63;;;19.50;49.30;;;;;;4856489;28;45352;-55
2023/10/18 03:16:04;;;;;;;1.00;0.50;;;19.50;49.50;;;;;;4864575;28;46561;-55
2023/10/18 03:19:21;;;;;;;0.60;0.60;;;19.60;49.50;;;;;;4896704;28;45164;-55
2023/10/18 03:22:03;;;;;;;0.63;0.57;;;19.50;49.50;;;;;;4886433;27;45293;-56
2023/10/18 03:24:36;;;;;;;1.10;0.60;;;19.50;50.70;;;;;;4885057;27;45183;-56
2023/10/18 03:28:00;;;;;;;1.08;0.60;;;19.60;49.40;;;;;;4876843;27;46451;-55
2023/10/18 03:30:50;;;;;;;0.70;0.50;;;19.50;49.20;;;;;;4857141;27;46042;-55
2023/10/18 03:33:36;;;;;;;1.58;0.70;;;19.60;49.60;;;;;;4887287;27;45227;-55
2023/10/18 03:36:20;;;;;;;0.73;0.50;;;19.50;49.60;;;;;;4890457;27;45462;-55
2023/10/18 04:15:12;;;;;;;0.73;0.60;;;19.60;49.20;;;;;;5531803;22;12977866;-56
2023/10/18 04:20:31;;;;;;;0.70;0.60;;;19.50;49.50;;;;;;6001287;22;46072;-56
2023/10/18 04:23:18;;;;;;;0.60;0.43;;;19.50;49.80;;;;;;6042231;22;45457;-56
2023/10/18 04:25:57;;;;;;;3.05;0.88;;;19.50;50.10;;;;;;6035432;22;45302;-56
2023/10/18 04:28:24;;;;;;;0.88;0.40;;;19.50;50.20;;;;;;6036900;22;45345;-55
2023/10/18 04:31:01;;;;;;;2.08;0.73;;;19.50;50.10;;;;;;6030982;22;46503;-55
2023/10/18 04:33:35;;;;;;;0.88;0.68;;;19.50;50.20;;;;;;6026995;22;45465;-55
2023/10/18 04:36:33;;;;;;;1.02;0.80;;;19.50;50.10;;;;;;6007138;22;45122;-55
2023/10/18 04:39:02;;;;;;;0.77;0.60;;;19.50;50.60;;;;;;6020050;22;45215;-55
2023/10/18 04:41:44;;;;;;;0.82;0.60;;;19.50;50.60;;;;;;6055006;22;45408;-55
2023/10/18 04:44:38;;;;;;;1.05;0.63;;;19.50;50.60;;;;;;6055579;22;45078;-55
2023/10/18 04:47:58;;;;;;;0.80;0.60;;;19.50;50.50;;;;;;6028707;22;45128;-55
2023/10/18 04:50:33;;;;;;;0.90;0.60;;;19.50;50.40;;;;;;6030751;22;45808;-56
2023/10/18 04:53:12;;;;;;;1.08;0.75;;;19.50;50.40;;;;;;6015244;22;47191;-56
2023/10/18 04:56:08;;;;;;;1.83;0.70;;;19.50;50.50;;;;;;6088348;22;45235;-55
2023/10/18 04:58:48;;;;;;;1.27;0.80;;;19.50;50.50;;;;;;6025010;22;45137;-55
2023/10/18 05:01:16;;;;;;;0.90;0.70;;;19.50;50.50;;;;;;6026393;22;45310;-55
2023/10/18 05:03:58;;;;;;;1.35;0.70;;;19.50;50.40;;;;;;6025748;22;46558;-54
2023/10/18 05:06:28;;;;;;;0.90;0.60;;;19.50;50.20;;;;;;6025515;22;46159;-54
2023/10/18 05:08:56;;;;;;;1.85;0.60;;;19.50;50.20;;;;;;6005724;22;45242;-55
2023/10/18 05:11:55;;;;;;;0.73;0.70;;;19.50;50.00;;;;;;6046970;22;45078;-54
2023/10/18 05:14:49;;;;;;;2.03;0.60;;;19.50;49.70;;;;;;6047603;22;48185;-55
2023/10/18 05:17:21;;;;;;;0.65;0.60;;;19.50;50.40;;;;;;6005460;22;45323;-55
2023/10/18 05:20:24;;;;;;;2.50;0.75;;;19.50;49.60;;;;;;6064406;22;45398;-55
2023/10/18 05:39:27;;;;;;;1.30;0.70;;;19.40;44.80;;;;;;6006753;22;1431164;-55
2023/10/18 05:42:21;;;;;;;1.67;1.00;;;19.30;44.90;;;;;;5824013;23;45370;-55
2023/10/18 05:44:53;;;;;;;0.93;0.60;;;19.30;44.10;;;;;;5853049;23;45463;-55
2023/10/18 05:47:20;;;;;;;1.52;0.90;;;19.30;44.60;;;;;;5842332;23;45716;-56
2023/10/18 05:49:50;;;;;;;1.00;0.70;;;19.30;44.40;;;;;;5866664;23;45158;-55
2023/10/18 05:52:36;;;;;;;1.35;0.80;;;19.30;44.40;;;;;;5852821;23;45082;-55
2023/10/18 05:55:38;;;;;;;1.02;0.82;;;19.30;45.30;;;;;;5867501;23;45603;-56
2023/10/18 05:58:25;;;;;;;1.85;0.80;;;19.40;46.60;;;;;;5851421;23;46761;-55
2023/10/18 06:01:39;;;;;;;1.65;0.70;;;19.40;47.20;;;;;;5853852;23;44878;-55
2023/10/18 06:04:37;;;;;;;0.75;0.55;;;19.40;47.70;;;;;;5856286;23;45404;-55
2023/10/18 06:07:17;;;;;;;0.93;0.70;;;19.40;48.00;;;;;;5863464;23;45192;-55
2023/10/18 06:10:23;;;;;;;0.80;0.73;;;19.50;48.30;;;;;;5900084;23;45209;-55
2023/10/18 06:13:20;;;;;;;0.80;0.60;;;19.50;48.50;;;;;;5894906;23;45027;-55
2023/10/18 06:19:31;;;;;;;0.68;0.52;;;19.50;48.60;;;;;;5850624;23;45214;-54
2023/10/18 06:22:29;;;;;;;1.10;0.80;;;19.50;48.70;;;;;;5833016;23;45123;-55
2023/10/18 06:25:35;;;;;;;0.90;0.73;;;19.50;48.70;;;;;;5900289;23;45327;-55
2023/10/18 06:28:45;;;;;;;2.03;0.80;;;19.50;48.60;;;;;;5827963;23;44874;-55
2023/10/18 06:31:24;;;;;;;1.13;0.68;;;19.40;48.60;;;;;;5843754;23;45420;-55
2023/10/18 06:34:22;;;;;;;0.85;0.65;;;19.50;48.80;;;;;;5856284;23;45187;-55
2023/10/18 06:37:01;;;;;;;0.68;0.50;;;19.50;48.80;;;;;;5883079;23;45206;-54
2023/10/18 06:39:34;;;;;;;0.95;0.82;;;19.50;48.90;;;;;;5852982;23;45410;-56
2023/10/18 06:42:36;;;;;;;1.00;0.80;;;19.50;49.20;;;;;;5817900;23;45537;-55
2023/10/18 06:45:33;;;;;;;0.85;0.75;;;19.50;49.20;;;;;;5849752;23;47572;-56
2023/10/18 06:48:03;;;;;;;1.20;0.50;;;19.50;49.40;;;;;;5848395;23;45343;-56
2023/10/18 06:50:54;;;;;;;0.80;0.60;;;19.40;49.30;;;;;;5851424;23;45181;-56
2023/10/18 06:53:38;;;;;;;0.70;0.60;;;19.50;49.60;;;;;;5862883;23;45161;-56
2023/10/18 06:56:32;;;;;;;1.00;0.60;;;19.50;49.40;;;;;;5832416;23;45413;-56
2023/10/18 06:59:06;;;;;;;1.60;0.90;;;19.50;49.60;;;;;;5834743;23;45262;-56
2023/10/18 07:01:41;;;;;;;1.77;0.82;;;19.50;49.50;;;;;;5848978;23;45481;-56
2023/10/18 07:04:51;;;;;;;1.13;0.70;;;19.50;49.50;;;;;;5839596;23;45305;-56
2023/10/18 07:07:55;;;;;;;1.23;0.80;;;19.50;49.30;;;;;;5855437;23;47453;-56
2023/10/18 07:10:52;;;;;;;3.92;0.80;;;19.50;49.30;;;;;;5839885;23;45106;-56
2023/10/18 07:13:39;;;;;;;1.42;0.80;;;19.50;49.50;;;;;;5869920;23;45118;-55
2023/10/18 07:16:15;;;;;;;1.73;0.65;;;19.50;49.40;;;;;;5855783;23;45176;-56
2023/10/18 07:21:25;;;;;;;1.77;0.90;;;19.50;49.60;;;;;;5854738;23;45057;-56
2023/10/18 07:24:10;;;;;;;2.10;0.77;;;19.50;49.60;;;;;;5861993;23;45280;-56
2023/10/18 07:26:37;;;;;;;1.48;0.80;;;19.50;49.80;;;;;;5849734;23;45217;-56
2023/10/18 07:29:20;;;;;;;0.70;0.55;;;19.50;49.80;;;;;;5844215;23;46443;-56
2023/10/18 07:32:06;;;;;;;0.57;0.57;;;19.50;49.90;;;;;;5859489;23;45262;-55
2023/10/18 07:34:36;;;;;;;0.85;0.50;;;19.50;50.00;;;;;;5832921;23;45256;-56
2023/10/18 07:37:31;;;;;;;0.93;0.70;;;19.50;50.00;;;;;;5846249;23;45006;-55
2023/10/18 07:40:40;;;;;;;1.85;0.70;;;19.50;50.00;;;;;;5858521;23;45393;-56
2023/10/18 07:43:32;;;;;;;1.55;0.63;;;19.50;50.00;;;;;;5834092;23;45298;-55
2023/10/18 07:45:58;;;;;;;0.88;0.70;;;19.50;50.20;;;;;;5869999;23;45467;-56
2023/10/18 07:48:27;;;;;;;0.60;0.60;;;19.50;50.30;;;;;;5892523;23;45216;-56
2023/10/18 07:51:23;;;;;;;0.95;0.77;;;19.50;50.20;;;;;;5835005;23;47004;-56
2023/10/18 07:54:22;;;;;;;0.60;0.50;;;19.50;50.30;;;;;;5837556;23;45499;-56
2023/10/18 07:56:50;;;;;;;1.05;0.60;;;19.50;50.30;;;;;;5853043;23;45304;-56
2023/10/18 07:59:29;;;;;;;2.03;0.70;;;19.50;50.30;;;;;;5878497;23;45119;-56
2023/10/18 08:02:09;;;;;;;1.42;0.65;;;19.50;50.30;;;;;;5865316;23;45915;-56
2023/10/18 08:05:00;;;;;;;1.58;0.80;;;19.50;50.20;;;;;;5845910;23;45335;-55
2023/10/18 08:07:38;;;;;;;0.93;0.80;;;19.50;50.30;;;;;;5835995;23;45381;-56
2023/10/18 08:10:08;;;;;;;0.95;0.68;;;19.50;50.20;;;;;;5830888;23;45292;-56
2023/10/18 08:13:16;;;;;;;1.67;0.88;;;19.50;50.30;;;;;;5856140;23;45182;-55
2023/10/18 08:16:01;;;;;;;1.63;0.88;;;19.50;50.30;;;;;;5824454;23;45630;-56
2023/10/18 08:18:42;;;;;;;1.80;0.93;;;19.50;50.40;;;;;;5823305;23;45062;-55
2023/10/18 08:21:37;;;;;;;1.02;0.93;;;19.50;51.70;;;;;;5861210;23;45199;-56
2023/10/18 08:24:49;;;;;;;1.55;1.05;;;19.50;50.70;;;;;;5837103;23;45299;-55
2023/10/18 08:27:29;;;;;;;2.13;0.85;;;19.50;50.70;;;;;;5839291;23;44825;-56
2023/10/18 08:30:06;;;;;;;1.02;0.60;;;19.60;50.80;;;;;;5881161;23;45145;-56
2023/10/18 08:32:39;;;;;;;1.05;0.80;;;19.50;51.10;;;;;;5842305;23;45344;-56
2023/10/18 08:35:09;;;;;;;1.35;0.70;;;19.60;51.40;;;;;;5843738;23;45175;-56
2023/10/18 08:38:01;;;;;;;1.35;0.80;;;19.50;51.20;;;;;;5862654;23;45356;-55
2023/10/18 08:40:36;;;;;;;1.85;0.82;;;19.50;51.30;;;;;;5869966;23;45239;-55
2023/10/18 08:43:48;;;;;;;0.90;0.73;;;19.50;51.30;;;;;;5858275;23;45265;-55
2023/10/18 08:46:52;;;;;;;1.52;0.75;;;19.50;51.50;;;;;;5845128;23;46325;-55
2023/10/18 08:50:32;;;;;;;1.55;0.85;;;19.50;51.30;;;;;;5850955;23;45307;-55
2023/10/18 08:55:57;;;;;;;1.73;0.90;;;19.50;51.80;;;;;;5825483;23;45092;-55
2023/10/18 08:58:49;;;;;;;1.30;0.70;;;19.50;51.50;;;;;;5879618;23;47219;-55
2023/10/18 09:01:37;;;;;;;1.52;0.80;;;19.50;51.50;;;;;;5860302;23;45322;-55
2023/10/18 09:04:31;;;;;;;1.25;0.85;;;19.60;51.60;;;;;;5875123;23;45489;-55
2023/10/18 09:07:18;;;;;;;1.20;0.75;;;19.60;51.70;;;;;;5856221;23;45013;-55
2023/10/18 09:10:13;;;;;;;1.13;0.90;;;19.60;51.70;;;;;;5832466;23;46043;-55
2023/10/18 09:18:40;;;;;;;1.17;0.63;;;19.60;51.70;;;;;;5832516;23;45345;-55
2023/10/18 09:21:17;;;;;;;1.52;0.90;;;19.60;51.60;;;;;;5827107;23;45232;-55
2023/10/18 09:24:09;;;;;;;1.30;0.80;;;19.60;51.60;;;;;;5861379;23;46520;-55
2023/10/18 09:26:51;;;;;;;1.00;0.73;;;19.60;51.80;;;;;;5850131;23;45227;-55
2023/10/18 09:29:34;;;;;;;1.52;0.90;;;19.60;52.00;;;;;;5846366;23;45324;-55
2023/10/18 09:35:11;;;;;;;1.13;0.80;;;19.60;51.80;;;;;;5816896;23;45379;-55
2023/10/18 09:37:38;;;;;;;4.28;0.90;;;19.60;52.10;;;;;;5843755;23;45283;-55
2023/10/18 09:42:50;;;;;;;0.93;0.82;;;19.60;52.50;;;;;;5830912;23;45042;-55
2023/10/18 09:45:59;;;;;;;1.25;0.80;;;19.60;52.60;;;;;;5820359;23;45070;-55
2023/10/18 09:48:31;;;;;;;1.02;0.73;;;19.60;52.60;;;;;;5886552;23;45297;-55
2023/10/18 09:54:42;;;;;;;1.13;0.52;;;19.60;53.30;;;;;;5863520;23;45730;-55
2023/10/18 09:57:24;;;;;;;0.82;0.50;;;19.60;53.30;;;;;;5841133;23;45064;-55
2023/10/18 10:00:16;;;;;;;0.85;0.70;;;19.60;53.80;;;;;;5845851;23;45825;-55
2023/10/18 10:02:58;;;;;;;1.35;0.80;;;19.60;53.50;;;;;;5854445;23;45100;-55
2023/10/18 10:05:51;;;;;;;1.85;0.80;;;19.60;53.50;;;;;;5854771;23;45817;-55
2023/10/18 10:08:47;;;;;;;1.30;0.90;;;19.60;53.70;;;;;;5842991;23;45402;-55
2023/10/18 10:11:43;;;;;;;1.40;0.73;;;19.60;53.50;;;;;;5852065;23;45310;-55
2023/10/18 10:14:12;;;;;;;0.85;0.65;;;19.60;53.60;;;;;;5842196;23;45306;-55
2023/10/18 10:17:15;;;;;;;1.10;0.73;;;19.60;53.90;;;;;;5876125;23;45375;-55
2023/10/18 10:19:54;;;;;;;0.80;0.80;;;19.60;53.40;;;;;;5836650;23;45373;-55
2023/10/18 10:22:53;;;;;;;0.82;0.60;;;19.60;53.90;;;;;;5877819;23;45354;-55
2023/10/18 10:29:33;;;;;;;1.08;0.60;;;19.60;53.90;;;;;;5846107;23;45495;-55
2023/10/18 10:32:23;;;;;;;0.88;0.70;;;19.60;53.50;;;;;;5836194;23;45279;-55
2023/10/18 10:35:15;;;;;;;1.27;0.85;;;19.70;53.90;;;;;;5845137;23;44934;-55
2023/10/18 10:37:48;;;;;;;1.63;0.70;;;19.70;53.60;;;;;;5831522;23;45269;-55
2023/10/18 10:40:35;;;;;;;0.75;0.70;;;19.70;53.90;;;;;;5848212;23;45960;-55
2023/10/18 10:44:08;;;;;;;0.60;0.60;;;19.70;53.90;;;;;;5871022;23;45309;-55
2023/10/18 10:50:45;;;;;;;1.15;0.73;;;19.70;53.90;;;;;;5827628;23;45030;-55
2023/10/18 11:14:29;;;;;;;1.23;0.80;;;19.70;54.00;;;;;;6286937;22;1423203;-55
2023/10/18 11:23:01;;;;;;;0.60;0.60;;;19.70;53.90;;;;;;6022240;22;45366;-55
2023/10/18 11:25:38;;;;;;;0.60;0.60;;;19.70;53.90;;;;;;6026869;22;45307;-55
2023/10/18 11:28:28;;;;;;;0.85;0.63;;;19.70;53.90;;;;;;6042888;22;45338;-55
2023/10/18 11:31:07;;;;;;;0.73;0.70;;;19.70;54.00;;;;;;6041672;22;45325;-55
2023/10/18 11:37:01;;;;;;;1.23;0.68;;;19.70;53.90;;;;;;6037669;22;45357;-54
2023/10/18 11:39:42;;;;;;;1.58;0.77;;;19.80;54.00;;;;;;6035674;22;45408;-54
2023/10/18 11:43:26;;;;;;;1.20;0.55;;;19.80;54.00;;;;;;6038723;22;45156;-55
2023/10/18 11:46:14;;;;;;;1.42;0.60;;;19.70;54.00;;;;;;6066046;22;45696;-54
2023/10/18 11:48:54;;;;;;;0.70;0.60;;;19.80;54.00;;;;;;6049319;22;44893;-55
2023/10/18 11:51:20;;;;;;;1.05;0.70;;;19.80;54.00;;;;;;6028955;22;47773;-55
2023/10/18 11:53:52;;;;;;;1.02;0.68;;;19.80;54.00;;;;;;6049347;22;45372;-55
2023/10/18 11:56:21;;;;;;;0.88;0.60;;;19.80;54.00;;;;;;6045743;22;45218;-55
2023/10/18 12:05:15;;;;;;;1.50;0.60;;;19.70;53.90;;;;;;6030661;22;44887;-55
2023/10/18 12:11:22;;;;;;;0.95;0.70;;;19.70;53.90;;;;;;6018561;22;45278;-54
2023/10/18 12:13:49;;;;;;;0.93;0.60;;;19.70;54.00;;;;;;6016048;22;46309;-54
2023/10/18 12:16:41;;;;;;;0.82;0.55;;;19.70;54.00;;;;;;6029715;22;45183;-54
2023/10/18 12:19:27;;;;;;;0.80;0.60;;;19.70;53.90;;;;;;6072338;22;45057;-54
2023/10/18 12:22:09;;;;;;;1.13;0.68;;;19.80;54.20;;;;;;6088055;22;45412;-54
2023/10/18 12:25:01;;;;;;;0.77;0.60;;;19.80;54.50;;;;;;6075329;22;45394;-54
2023/10/18 12:27:34;;;;;;;1.88;0.65;;;19.80;54.40;;;;;;6061933;22;45566;-54
2023/10/18 12:33:04;;;;;;;1.02;0.60;;;19.80;55.80;;;;;;6056985;22;45287;-54
2023/10/18 12:36:22;;;;;;;0.63;0.50;;;19.80;55.20;;;;;;6073607;22;45761;-54
2023/10/18 12:38:49;;;;;;;0.75;0.60;;;19.80;55.40;;;;;;6052344;22;45281;-54
2023/10/18 12:44:39;;;;;;;1.02;0.50;;;19.90;55.60;;;;;;6009830;22;45065;-53
2023/10/18 12:47:34;;;;;;;1.02;0.52;;;19.90;55.60;;;;;;6058372;22;45945;-54
2023/10/18 12:50:11;;;;;;;0.75;0.57;;;20.00;55.90;;;;;;6054275;22;45384;-53
2023/10/18 12:55:43;;;;;;;1.60;0.52;;;20.00;55.60;;;;;;6041540;22;45348;-54
2023/10/18 12:58:18;;;;;;;0.90;0.45;;;20.00;55.30;;;;;;6099987;22;46627;-54
2023/10/18 13:01:42;;;;;;;0.68;0.50;;;20.00;54.90;;;;;;6244286;22;45160;-54
2023/10/18 13:06:53;;;;;;;1.55;0.43;;;19.90;54.80;;;;;;6067326;22;45244;-54
2023/10/18 13:09:30;;;;;;;1.10;0.50;;;20.00;55.00;;;;;;6073214;22;47624;-55
2023/10/18 13:12:18;;;;;;;0.73;0.47;;;20.00;54.90;;;;;;6054558;22;45741;-54
2023/10/18 13:14:49;;;;;;;1.50;0.95;;;20.00;54.90;;;;;;6079992;22;45536;-54
2023/10/18 13:17:17;;;;;;;0.65;0.40;;;19.90;54.70;;;;;;6055159;22;45073;-54
2023/10/18 13:19:45;;;;;;;0.77;0.50;;;19.90;55.00;;;;;;6069349;22;46588;-54
2023/10/18 13:22:40;;;;;;;0.50;0.40;;;19.90;55.60;;;;;;6122016;22;44998;-54
2023/10/18 13:25:37;;;;;;;0.38;0.30;;;19.90;55.30;;;;;;6079477;22;45216;-54
2023/10/18 13:28:24;;;;;;;0.98;0.47;;;19.90;55.10;;;;;;6042175;22;45229;-54
2023/10/18 13:31:07;;;;;;;0.50;0.43;;;19.90;55.30;;;;;;6094838;22;45263;-54
2023/10/18 13:33:52;;;;;;;0.70;0.52;;;19.90;55.90;;;;;;6051723;22;44864;-54
2023/10/18 13:36:30;;;;;;;0.55;0.40;;;19.90;55.80;;;;;;6052498;22;45487;-54
2023/10/18 13:39:17;;;;;;;0.57;0.45;;;19.90;55.70;;;;;;6065559;22;45169;-54
2023/10/18 13:41:55;;;;;;;0.95;0.63;;;19.90;55.80;;;;;;6068440;22;47456;-54
2023/10/18 13:44:34;;;;;;;0.30;0.30;;;19.90;55.90;;;;;;6068118;22;45054;-54
2023/10/18 13:47:49;;;;;;;0.55;0.50;;;19.90;56.20;;;;;;6177764;22;45156;-54
2023/10/18 13:50:30;;;;;;;0.70;0.47;;;19.90;56.20;;;;;;6039019;22;45206;-54
2023/10/18 13:53:21;;;;;;;0.55;0.43;;;19.90;56.20;;;;;;6056346;22;45422;-54
2023/10/18 13:56:09;;;;;;;1.23;0.40;;;19.90;56.20;;;;;;6033381;22;45357;-54
2023/10/18 14:05:25;;;;;;;0.73;0.43;;;19.90;56.10;;;;;;6063838;22;45180;-55
2023/10/18 14:08:16;;;;;;;0.50;0.45;;;19.90;56.00;;;;;;6062489;22;45167;-55
2023/10/18 14:10:54;;;;;;;0.77;0.55;;;19.90;55.90;;;;;;6066340;22;45133;-55
2023/10/18 14:13:54;;;;;;;0.50;0.50;;;19.90;55.90;;;;;;6038522;22;45150;-55
2023/10/18 14:16:54;;;;;;;0.77;0.40;;;19.90;56.20;;;;;;6108378;22;46161;-55
2023/10/18 14:19:32;;;;;;;1.45;0.60;;;19.80;56.00;;;;;;6058860;22;45213;-55
2023/10/18 14:21:59;;;;;;;1.33;0.63;;;19.80;56.20;;;;;;6074887;22;44878;-55
2023/10/18 14:24:47;;;;;;;0.80;0.43;;;19.80;56.30;;;;;;6074160;22;45275;-54
2023/10/18 14:27:36;;;;;;;0.73;0.50;;;19.80;56.00;;;;;;6052927;22;46538;-55
2023/10/18 14:30:12;;;;;;;0.75;0.50;;;19.80;56.00;;;;;;6076614;22;45039;-55
2023/10/18 14:32:39;;;;;;;0.40;0.40;;;19.80;56.10;;;;;;6057151;22;45062;-54
2023/10/18 14:35:09;;;;;;;0.93;0.40;;;19.80;56.50;;;;;;6075943;22;45456;-54
2023/10/18 14:37:36;;;;;;;0.60;0.50;;;19.80;56.60;;;;;;6038349;22;45466;-55
2023/10/18 14:40:13;;;;;;;0.68;0.43;;;19.80;56.50;;;;;;6049362;22;44983;-55
2023/10/18 14:43:05;;;;;;;1.30;0.50;;;19.80;56.60;;;;;;6068414;22;44742;-55
2023/10/18 14:46:17;;;;;;;1.15;0.50;;;19.80;56.50;;;;;;6105576;22;45187;-54
2023/10/18 14:49:13;;;;;;;0.40;0.40;;;19.80;56.40;;;;;;6053371;22;45508;-55
2023/10/18 14:52:25;;;;;;;0.50;0.50;;;19.80;56.30;;;;;;6093387;22;45220;-55
2023/10/18 14:55:18;;;;;;;0.85;0.50;;;19.80;56.40;;;;;;6047937;22;45136;-55
2023/10/18 14:58:03;;;;;;;0.40;0.40;;;19.80;56.60;;;;;;6071590;22;45301;-55
2023/10/18 15:00:30;;;;;;;0.60;0.52;;;19.80;56.60;;;;;;6075768;22;47117;-55
2023/10/18 15:03:24;;;;;;;0.52;0.40;;;19.80;56.70;;;;;;6073906;22;45353;-55
2023/10/18 15:05:53;;;;;;;0.80;0.57;;;19.80;56.60;;;;;;6039081;22;45146;-55
2023/10/18 15:08:41;;;;;;;0.63;0.45;;;19.80;56.60;;;;;;6048350;22;45918;-55
2023/10/18 15:11:12;;;;;;;1.10;0.60;;;19.80;56.50;;;;;;6027215;22;47185;-55
2023/10/18 15:14:00;;;;;;;0.60;0.60;;;19.80;56.60;;;;;;6050432;22;44837;-55
2023/10/18 15:16:45;;;;;;;1.13;0.50;;;19.80;56.50;;;;;;6091229;22;45058;-55
2023/10/18 15:19:27;;;;;;;0.63;0.50;;;19.80;56.50;;;;;;6049987;22;45219;-55
2023/10/18 15:22:21;;;;;;;0.52;0.50;;;19.80;56.40;;;;;;6098520;22;45812;-55
2023/10/18 15:25:04;;;;;;;1.23;0.38;;;19.80;56.50;;;;;;6077523;22;45168;-55
2023/10/18 15:27:47;;;;;;;0.75;0.50;;;19.80;57.00;;;;;;6059473;22;45245;-54
2023/10/18 15:30:17;;;;;;;0.82;0.50;;;19.80;57.20;;;;;;6040808;22;45356;-55
2023/10/18 15:33:04;;;;;;;1.15;0.50;;;19.80;57.70;;;;;;6062247;22;47691;-55
2023/10/18 15:35:41;;;;;;;0.88;0.50;;;19.80;57.70;;;;;;6080869;22;45314;-56
2023/10/18 15:38:09;;;;;;;17.08;1.48;;;19.80;57.70;;;;;;6033853;22;45227;-54
2023/10/18 15:40:47;;;;;;;6.38;0.60;;;19.80;59.00;;;;;;6032176;22;45437;-54
2023/10/18 15:43:16;;;;;;;3.33;0.60;;;19.80;58.90;;;;;;6067015;22;45408;-55
2023/10/18 15:48:37;;;;;;;0.88;0.50;;;19.80;58.50;;;;;;6028809;22;44940;-54
2023/10/18 15:51:40;;;;;;;1.40;0.50;;;19.80;58.10;;;;;;6074619;22;45477;-54
2023/10/18 15:54:10;;;;;;;2.83;0.50;;;19.80;57.90;;;;;;6060029;22;46051;-54
2023/10/18 15:56:39;;;;;;;2.05;0.60;;;19.90;57.90;;;;;;6039773;22;45231;-54
2023/10/18 15:59:17;;;;;;;2.15;0.60;;;19.80;57.70;;;;;;6041739;22;45065;-54
2023/10/18 16:02:26;;;;;;;0.93;0.60;;;19.80;57.50;;;;;;6081752;22;45336;-55
2023/10/18 16:05:40;;;;;;;0.93;0.52;;;19.90;57.50;;;;;;6074181;22;46220;-54
2023/10/18 16:08:09;;;;;;;0.63;0.40;;;19.80;57.30;;;;;;6066946;22;45115;-55
2023/10/18 16:10:53;;;;;;;0.50;0.50;;;19.90;57.30;;;;;;6076265;22;45382;-55
2023/10/18 16:13:48;;;;;;;1.48;0.70;;;19.90;57.40;;;;;;6040088;22;45145;-55
2023/10/18 16:16:26;;;;;;;1.02;0.57;;;19.90;57.30;;;;;;6068836;22;47368;-54
2023/10/18 16:18:57;;;;;;;1.27;0.70;;;19.90;57.30;;;;;;6057966;22;45571;-54
2023/10/18 16:21:46;;;;;;;0.90;0.60;;;19.90;57.20;;;;;;6077854;22;45128;-54
2023/10/18 16:24:20;;;;;;;1.45;0.70;;;19.90;57.10;;;;;;6059887;22;45266;-59
2023/10/18 16:27:10;;;;;;;7.10;0.98;;;19.90;57.20;;;;;;6081447;22;46386;-55
2023/10/18 16:29:40;;;;;;;7.25;1.00;;;19.90;59.10;;;;;;6055910;22;45045;-55
2023/10/18 16:32:37;;;;;;;0.98;0.50;;;19.90;58.80;;;;;;6114719;22;45069;-54
2023/10/18 16:35:15;;;;;;;2.92;0.60;;;19.90;58.50;;;;;;6034979;22;44883;-55
2023/10/18 16:37:53;;;;;;;3.08;0.60;;;19.80;58.20;;;;;;6067464;22;45320;-54
2023/10/18 16:40:19;;;;;;;1.70;0.60;;;19.80;58.10;;;;;;6059667;22;45114;-54
2023/10/18 16:43:18;;;;;;;0.88;0.60;;;19.80;58.20;;;;;;6052192;22;45324;-53
2023/10/18 16:45:57;;;;;;;1.95;0.70;;;19.80;58.40;;;;;;6056322;22;45385;-55
2023/10/18 16:48:26;;;;;;;1.65;0.80;;;19.80;58.20;;;;;;6061624;22;45350;-53
2023/10/18 16:50:53;;;;;;;1.75;0.50;;;19.80;58.40;;;;;;6049926;22;45148;-54
2023/10/18 16:53:25;;;;;;;0.90;0.70;;;19.80;58.40;;;;;;6068561;22;44982;-54
2023/10/18 16:55:55;;;;;;;1.38;0.63;;;19.80;58.40;;;;;;6074531;22;45006;-54
2023/10/18 16:58:22;;;;;;;1.17;0.60;;;19.80;58.30;;;;;;6087977;22;46021;-55